Time;durP1;ratioP1;P1;durP2;ratioP2;P2;SDS_P1;SDS_P2;PMS_P1;PMS_P2;Temp;Humidity;BMP_temperature;BMP_pressure;BME280_temperature;BME280_humidity;BME280_pressure;Samples;Min_cycle;Max_cycle;Signal;HPM_P1;HPM_P2
2022/05/18 00:00:23;;;;;;;2.13;0.70;;;14.70;1.00;;;;;;5034421;28;20292;-84
2022/05/18 00:02:48;;;;;;;4.27;0.60;;;14.80;1.00;;;;;;5035405;28;20175;-89
2022/05/18 00:05:14;;;;;;;1.37;0.30;;;14.70;1.00;;;;;;5035482;28;20417;-85
2022/05/18 00:07:39;;;;;;;1.70;0.40;;;14.60;1.00;;;;;;5035394;28;20269;-86
2022/05/18 00:10:08;;;;;;;2.03;0.50;;;14.60;1.00;;;;;;5034078;28;20789;-86
2022/05/18 00:12:34;;;;;;;2.10;0.60;;;14.60;1.00;;;;;;5035175;28;20277;-87
2022/05/18 00:14:59;;;;;;;3.80;0.43;;;14.50;1.00;;;;;;5035247;28;20443;-86
2022/05/18 00:17:25;;;;;;;1.57;0.30;;;14.50;1.00;;;;;;5033630;28;20255;-86
2022/05/18 00:19:50;;;;;;;0.87;0.30;;;14.40;1.00;;;;;;5035073;28;20194;-87
2022/05/18 00:22:18;;;;;;;1.57;0.50;;;14.30;1.00;;;;;;5033671;28;20174;-86
2022/05/18 00:24:44;;;;;;;1.97;0.50;;;14.20;1.00;;;;;;5034959;28;20172;-86
2022/05/18 00:27:09;;;;;;;1.13;0.27;;;14.20;99.90;;;;;;5034573;28;20419;-85
2022/05/18 00:29:35;;;;;;;1.47;0.20;;;14.20;1.00;;;;;;5034943;28;20229;-86
2022/05/18 00:32:01;;;;;;;2.30;0.63;;;14.20;99.90;;;;;;5034640;28;20535;-85
2022/05/18 00:34:26;;;;;;;1.60;0.87;;;14.20;1.00;;;;;;5034800;28;20740;-87
2022/05/18 00:36:52;;;;;;;1.33;0.47;;;14.20;1.00;;;;;;5034541;28;20468;-86
2022/05/18 00:39:19;;;;;;;1.23;0.30;;;14.10;99.90;;;;;;5033486;28;20180;-85
2022/05/18 00:41:44;;;;;;;0.87;0.30;;;14.10;1.00;;;;;;5034539;28;20202;-84
2022/05/18 00:44:10;;;;;;;0.97;0.40;;;14.00;99.90;;;;;;5033258;28;20425;-84
2022/05/18 00:46:35;;;;;;;1.60;0.40;;;14.00;10.60;;;;;;5034156;28;20258;-85
2022/05/18 00:49:06;;;;;;;1.43;0.20;;;14.00;99.90;;;;;;5033133;28;20166;-85
2022/05/18 00:51:46;;;;;;;1.07;0.30;;;13.90;1.00;;;;;;5033226;28;20182;-84
2022/05/18 00:54:17;;;;;;;3.13;0.30;;;13.80;1.00;;;;;;5034224;28;20420;-86
2022/05/18 00:56:50;;;;;;;1.07;0.20;;;13.70;99.90;;;;;;5034231;28;20544;-86
2022/05/18 00:59:21;;;;;;;1.70;0.30;;;13.70;63.30;;;;;;5032953;28;20428;-86
2022/05/18 01:01:48;;;;;;;1.13;0.30;;;13.60;1.00;;;;;;5033909;28;20815;-86
2022/05/18 01:04:14;;;;;;;2.00;0.30;;;13.60;1.00;;;;;;5034314;28;20418;-86
2022/05/18 01:06:45;;;;;;;0.73;0.20;;;13.50;99.90;;;;;;5034084;28;20413;-85
2022/05/18 01:09:27;;;;;;;1.00;0.30;;;13.50;13.40;;;;;;5034057;28;20507;-84
2022/05/18 01:11:52;;;;;;;1.83;0.40;;;13.40;99.90;;;;;;5032737;28;20472;-84
2022/05/18 01:14:30;;;;;;;2.00;0.53;;;13.40;99.90;;;;;;5034121;28;20851;-85
2022/05/18 01:16:56;;;;;;;2.00;0.30;;;13.40;99.90;;;;;;5033577;28;20188;-84
2022/05/18 01:19:44;;;;;;;2.33;0.37;;;13.40;1.00;;;;;;5032580;28;20425;-85
2022/05/18 01:22:47;;;;;;;4.80;0.20;;;13.40;99.90;;;;;;5033801;28;20421;-85
2022/05/18 01:25:50;;;;;;;1.23;0.30;;;13.40;1.00;;;;;;5032150;28;20419;-84
2022/05/18 01:28:15;;;;;;;1.63;0.20;;;13.30;71.70;;;;;;5033750;28;20402;-84
2022/05/18 01:30:46;;;;;;;1.33;0.30;;;13.30;1.00;;;;;;5032439;28;20422;-84
2022/05/18 01:33:13;;;;;;;2.50;0.40;;;13.30;99.90;;;;;;5032694;28;20769;-83
2022/05/18 01:35:42;;;;;;;1.13;0.20;;;13.30;99.90;;;;;;5033114;28;20776;-84
2022/05/18 01:38:12;;;;;;;1.37;0.30;;;13.30;99.90;;;;;;5032525;28;20502;-85
2022/05/18 01:40:59;;;;;;;3.03;0.30;;;13.30;99.90;;;;;;5033537;28;20471;-85
2022/05/18 01:43:32;;;;;;;0.87;0.23;;;13.20;99.90;;;;;;5033553;28;20432;-84
2022/05/18 01:46:00;;;;;;;2.50;0.20;;;13.20;99.90;;;;;;5032720;28;20526;-84
2022/05/18 01:48:32;;;;;;;2.40;0.20;;;13.20;80.40;;;;;;5032866;28;20411;-82
2022/05/18 01:51:03;;;;;;;1.03;0.30;;;13.20;99.90;;;;;;5030947;28;20424;-82
2022/05/18 01:53:30;;;;;;;0.53;0.27;;;13.10;99.90;;;;;;5032709;28;20454;-82
2022/05/18 01:55:56;;;;;;;1.13;0.20;;;13.10;99.90;;;;;;5033355;28;20495;-83
2022/05/18 01:58:23;;;;;;;0.93;0.20;;;13.10;99.90;;;;;;5033305;28;20455;-83
2022/05/18 02:00:49;;;;;;;2.00;0.30;;;13.00;99.90;;;;;;5033254;28;20507;-84
2022/05/18 02:03:16;;;;;;;1.77;0.30;;;13.00;99.90;;;;;;5032930;28;20467;-81
2022/05/18 02:05:42;;;;;;;1.60;0.43;;;13.00;99.90;;;;;;5033243;28;20896;-83
2022/05/18 02:08:09;;;;;;;0.77;0.40;;;13.00;99.90;;;;;;5033162;28;20990;-82
2022/05/18 02:10:35;;;;;;;4.53;0.30;;;13.00;99.90;;;;;;5033131;28;20470;-82
2022/05/18 02:13:01;;;;;;;1.17;0.30;;;13.00;99.90;;;;;;5033100;28;20412;-83
2022/05/18 02:15:27;;;;;;;0.67;0.20;;;13.00;99.90;;;;;;5033190;28;20447;-83
2022/05/18 02:17:53;;;;;;;0.60;0.33;;;13.00;99.90;;;;;;5032725;28;20451;-83
2022/05/18 02:20:19;;;;;;;2.40;0.70;;;13.00;99.90;;;;;;5032982;28;20653;-82
2022/05/18 02:22:45;;;;;;;1.80;0.30;;;13.00;99.90;;;;;;5032941;28;20177;-84
2022/05/18 02:25:11;;;;;;;1.80;0.67;;;13.00;99.90;;;;;;5032971;28;20928;-83
2022/05/18 02:27:36;;;;;;;3.70;0.30;;;12.90;99.90;;;;;;5033000;28;20419;-82
2022/05/18 02:30:05;;;;;;;1.17;0.50;;;13.00;1.00;;;;;;5032940;28;20181;-82
2022/05/18 02:32:30;;;;;;;2.40;0.30;;;13.00;1.00;;;;;;5032558;28;20178;-82
2022/05/18 02:34:56;;;;;;;2.03;0.20;;;13.00;3.40;;;;;;5033006;28;20423;-83
2022/05/18 02:37:21;;;;;;;1.63;0.20;;;12.90;15.80;;;;;;5032611;28;20223;-84
2022/05/18 02:39:47;;;;;;;0.67;0.20;;;12.90;1.00;;;;;;5032842;28;20208;-84
2022/05/18 02:42:13;;;;;;;1.17;0.50;;;12.90;1.00;;;;;;5031722;28;20553;-87
2022/05/18 02:44:41;;;;;;;0.73;0.23;;;13.00;99.90;;;;;;5032881;28;20169;-83
2022/05/18 02:47:06;;;;;;;11.83;2.30;;;13.00;99.90;;;;;;5032538;28;20235;-83
2022/05/18 02:49:32;;;;;;;0.87;0.40;;;13.00;99.90;;;;;;5035162;28;20409;-86
2022/05/18 02:51:58;;;;;;;1.70;0.33;;;13.00;32.00;;;;;;5036809;28;20188;-83
2022/05/18 02:57:09;;;;;;;1.97;0.30;;;13.00;99.90;;;;;;5036720;28;20197;-83
2022/05/18 02:59:34;;;;;;;2.40;0.30;;;13.00;1.00;;;;;;5036555;28;20482;-83
2022/05/18 03:02:00;;;;;;;2.00;0.40;;;13.00;99.90;;;;;;5036237;28;20425;-82
2022/05/18 03:04:28;;;;;;;0.90;0.37;;;13.00;99.90;;;;;;5036475;28;20162;-82
2022/05/18 03:06:54;;;;;;;1.13;0.23;;;13.00;99.90;;;;;;5035245;28;20446;-82
2022/05/18 03:09:19;;;;;;;0.83;0.30;;;13.00;1.00;;;;;;5036432;28;20939;-82
2022/05/18 03:11:46;;;;;;;2.50;0.30;;;13.00;99.90;;;;;;5036385;28;20648;-82
2022/05/18 03:14:12;;;;;;;0.63;0.23;;;13.00;99.90;;;;;;5035092;28;20181;-83
2022/05/18 03:16:38;;;;;;;1.90;0.20;;;13.00;99.90;;;;;;5034680;28;20421;-82
2022/05/18 03:19:04;;;;;;;1.87;0.30;;;13.00;99.90;;;;;;5036244;28;20183;-83
2022/05/18 03:24:13;;;;;;;2.00;0.40;;;13.00;99.90;;;;;;5036180;28;20212;-82
2022/05/18 03:26:39;;;;;;;2.27;0.40;;;12.90;99.90;;;;;;5036166;28;20445;-81
2022/05/18 03:29:05;;;;;;;1.07;0.30;;;13.00;1.00;;;;;;5036096;28;20169;-83
2022/05/18 03:31:31;;;;;;;1.40;0.40;;;13.10;1.00;;;;;;5035688;28;20161;-82
2022/05/18 03:33:58;;;;;;;1.20;0.30;;;13.00;99.90;;;;;;5035978;28;20423;-82
2022/05/18 03:36:23;;;;;;;1.70;0.33;;;13.00;99.90;;;;;;5035763;28;20163;-83
2022/05/18 03:38:50;;;;;;;1.93;0.57;;;13.00;99.90;;;;;;5035967;28;20418;-83
2022/05/18 03:41:17;;;;;;;2.60;0.40;;;13.00;1.00;;;;;;5035761;28;20471;-83
2022/05/18 03:43:43;;;;;;;3.00;0.23;;;13.00;1.00;;;;;;5035756;28;20416;-83
2022/05/18 03:46:12;;;;;;;1.77;0.30;;;13.00;39.50;;;;;;5035375;28;20422;-83
2022/05/18 03:48:39;;;;;;;2.57;0.47;;;13.00;99.90;;;;;;5035676;28;20441;-83
2022/05/18 03:51:06;;;;;;;1.80;0.20;;;12.90;99.90;;;;;;5035662;28;20788;-83
2022/05/18 03:53:32;;;;;;;1.67;0.30;;;12.90;99.90;;;;;;5035434;28;20419;-82
2022/05/18 03:55:59;;;;;;;2.27;0.70;;;12.90;99.90;;;;;;5035584;28;20816;-83
2022/05/18 03:58:24;;;;;;;1.27;0.50;;;12.90;99.90;;;;;;5034298;28;20410;-86
2022/05/18 04:00:52;;;;;;;3.07;0.60;;;12.90;99.90;;;;;;5032855;28;21109;-83
2022/05/18 04:03:19;;;;;;;1.40;0.20;;;12.90;99.90;;;;;;5035499;28;20165;-85
2022/05/18 04:05:47;;;;;;;1.90;0.33;;;12.90;99.90;;;;;;5035352;28;20419;-84
2022/05/18 04:08:13;;;;;;;1.37;0.40;;;12.90;1.00;;;;;;5035477;28;20416;-83
2022/05/18 04:10:39;;;;;;;2.50;0.40;;;12.90;1.00;;;;;;5034105;28;20422;-83
2022/05/18 04:13:18;;;;;;;1.80;0.47;;;12.80;1.00;;;;;;5034084;28;20267;-85
2022/05/18 04:15:44;;;;;;;4.03;0.50;;;12.90;1.00;;;;;;5034899;28;20510;-84
2022/05/18 04:18:09;;;;;;;1.87;0.60;;;12.90;1.00;;;;;;5033977;28;20526;-84
2022/05/18 04:20:35;;;;;;;2.27;0.40;;;12.90;1.00;;;;;;5035085;28;20207;-84
2022/05/18 04:23:00;;;;;;;2.30;0.40;;;12.90;99.90;;;;;;5035141;28;20172;-84
2022/05/18 04:25:28;;;;;;;5.50;0.40;;;12.90;99.90;;;;;;5035012;28;20229;-84
2022/05/18 04:27:54;;;;;;;3.33;0.50;;;12.90;1.00;;;;;;5034989;28;20214;-84
2022/05/18 04:30:23;;;;;;;1.30;0.53;;;13.00;1.00;;;;;;5035031;28;20463;-83
2022/05/18 04:32:49;;;;;;;2.70;0.50;;;13.00;1.00;;;;;;5033505;28;20791;-84
2022/05/18 04:35:17;;;;;;;1.10;0.30;;;13.10;99.90;;;;;;5034816;28;20422;-85
2022/05/18 04:37:43;;;;;;;0.80;0.30;;;13.10;1.00;;;;;;5034618;28;20220;-85
2022/05/18 04:40:10;;;;;;;2.60;0.47;;;13.20;1.00;;;;;;5034641;28;20466;-85
2022/05/18 04:42:36;;;;;;;3.37;0.83;;;13.20;99.90;;;;;;5034782;28;20252;-86
2022/05/18 04:45:03;;;;;;;1.20;0.50;;;13.20;99.90;;;;;;5033467;28;20418;-85
2022/05/18 04:47:29;;;;;;;2.07;0.40;;;13.30;1.00;;;;;;5032984;28;20819;-84
2022/05/18 04:49:56;;;;;;;0.80;0.30;;;13.30;99.90;;;;;;5034508;28;20435;-84
2022/05/18 04:52:22;;;;;;;1.30;0.37;;;13.40;99.90;;;;;;5034475;28;20185;-84
2022/05/18 04:54:48;;;;;;;3.43;0.40;;;13.40;99.90;;;;;;5033272;28;20805;-84
2022/05/18 04:57:15;;;;;;;0.90;0.30;;;13.40;99.90;;;;;;5033221;28;20535;-84
2022/05/18 04:59:41;;;;;;;2.30;0.77;;;13.50;99.90;;;;;;5034328;28;20810;-83
2022/05/18 05:02:07;;;;;;;1.40;0.40;;;13.60;99.90;;;;;;5034006;28;20442;-85
2022/05/18 05:04:33;;;;;;;2.43;0.30;;;13.70;99.90;;;;;;5032935;28;20178;-86
2022/05/18 05:06:58;;;;;;;3.40;0.40;;;13.70;1.00;;;;;;5034484;28;20436;-85
2022/05/18 05:09:24;;;;;;;3.20;0.50;;;13.70;99.90;;;;;;5034341;28;20422;-86
2022/05/18 05:11:51;;;;;;;2.43;0.60;;;13.70;12.80;;;;;;5034043;28;20551;-84
2022/05/18 05:14:17;;;;;;;1.70;0.43;;;13.60;99.90;;;;;;5034255;28;20563;-83
2022/05/18 05:16:43;;;;;;;3.17;0.73;;;13.70;99.90;;;;;;5033693;28;20455;-85
2022/05/18 05:19:09;;;;;;;3.17;0.60;;;13.80;99.90;;;;;;5032813;28;20506;-84
2022/05/18 05:21:35;;;;;;;0.87;0.40;;;13.80;99.90;;;;;;5032824;28;20843;-85
2022/05/18 05:24:04;;;;;;;1.97;0.53;;;13.80;99.90;;;;;;5032657;28;20181;-86
2022/05/18 05:26:29;;;;;;;5.10;0.60;;;13.90;1.00;;;;;;5033856;28;20431;-84
2022/05/18 05:28:55;;;;;;;1.20;0.57;;;14.00;1.00;;;;;;5033882;28;20399;-85
2022/05/18 05:31:20;;;;;;;1.00;0.30;;;13.90;99.90;;;;;;5033367;28;20299;-83
2022/05/18 05:33:46;;;;;;;1.20;0.47;;;13.90;99.90;;;;;;5033088;28;20161;-84
2022/05/18 05:36:12;;;;;;;4.03;0.93;;;14.30;1.00;;;;;;5032642;28;20176;-84
2022/05/18 05:38:38;;;;;;;1.30;0.50;;;14.60;1.00;;;;;;5032086;28;20169;-86
2022/05/18 05:41:04;;;;;;;1.47;0.57;;;15.00;1.00;;;;;;5033670;28;20297;-83
2022/05/18 05:43:31;;;;;;;1.90;0.50;;;15.40;1.00;;;;;;5033595;28;20997;-84
2022/05/18 05:46:02;;;;;;;5.07;0.90;;;15.50;99.90;;;;;;5033148;28;20174;-83
2022/05/18 05:48:30;;;;;;;3.13;0.43;;;15.70;99.90;;;;;;5032300;28;20424;-85
2022/05/18 05:50:55;;;;;;;2.47;0.33;;;15.80;1.00;;;;;;5033448;28;20422;-84
2022/05/18 05:53:21;;;;;;;2.30;0.40;;;15.70;1.00;;;;;;5033436;28;21003;-83
2022/05/18 05:55:47;;;;;;;3.20;0.70;;;15.90;99.90;;;;;;5032146;28;20203;-84
2022/05/18 05:58:16;;;;;;;2.00;0.97;;;16.20;51.60;;;;;;5032078;28;20258;-84
2022/05/18 06:00:41;;;;;;;3.33;0.60;;;16.40;99.90;;;;;;5032732;28;20462;-83
2022/05/18 06:03:07;;;;;;;2.10;0.60;;;16.40;99.90;;;;;;5033260;28;20938;-84
2022/05/18 06:05:32;;;;;;;1.20;0.40;;;16.50;99.90;;;;;;5034092;28;20174;-84
2022/05/18 06:07:58;;;;;;;1.50;0.40;;;16.80;96.60;;;;;;5034268;28;20640;-84
2022/05/18 06:10:24;;;;;;;2.37;0.87;;;16.80;65.30;;;;;;5034081;28;20642;-83
2022/05/18 06:12:49;;;;;;;2.10;0.87;;;17.10;1.00;;;;;;5034183;28;20176;-83
2022/05/18 06:15:16;;;;;;;1.53;0.50;;;17.00;1.00;;;;;;5034488;28;20172;-82
2022/05/18 06:17:41;;;;;;;4.03;0.83;;;17.30;24.70;;;;;;5032978;28;20164;-83
2022/05/18 06:20:07;;;;;;;3.13;1.17;;;16.70;1.00;;;;;;5032972;28;20506;-83
2022/05/18 06:22:33;;;;;;;5.57;1.10;;;16.80;99.90;;;;;;5033011;28;20234;-85
2022/05/18 06:24:59;;;;;;;1.80;0.67;;;16.70;99.90;;;;;;5032596;28;20867;-82
2022/05/18 06:27:24;;;;;;;1.43;0.70;;;16.30;99.90;;;;;;5033062;28;20229;-83
2022/05/18 06:29:50;;;;;;;2.17;0.80;;;16.10;10.90;;;;;;5032944;28;20212;-81
2022/05/18 06:32:16;;;;;;;4.70;1.00;;;15.90;14.10;;;;;;5032505;28;20624;-83
2022/05/18 06:34:44;;;;;;;2.93;1.10;;;15.90;99.90;;;;;;5032927;28;20160;-83
2022/05/18 06:37:10;;;;;;;1.33;0.60;;;16.00;42.40;;;;;;5032804;28;20521;-84
2022/05/18 06:39:35;;;;;;;2.50;1.33;;;16.00;99.90;;;;;;5031584;28;20420;-83
2022/05/18 06:42:01;;;;;;;3.70;0.90;;;16.00;1.00;;;;;;5032864;28;20182;-83
2022/05/18 06:44:26;;;;;;;6.07;1.03;;;16.30;1.00;;;;;;5032803;28;20207;-83
2022/05/18 06:46:52;;;;;;;2.30;1.60;;;16.80;99.90;;;;;;5031220;28;20198;-85
2022/05/18 06:49:19;;;;;;;2.03;1.00;;;16.00;99.90;;;;;;5032667;28;20261;-89
2022/05/18 06:51:46;;;;;;;1.80;0.77;;;15.80;99.90;;;;;;5033038;28;20428;-89
2022/05/18 06:54:13;;;;;;;2.77;1.17;;;15.90;1.00;;;;;;5032522;28;20404;-86
2022/05/18 06:56:41;;;;;;;2.93;1.17;;;16.80;99.90;;;;;;5032866;28;20417;-83
2022/05/18 06:59:08;;;;;;;8.30;1.47;;;16.90;99.90;;;;;;5031450;28;20418;-83
2022/05/18 07:01:35;;;;;;;1.90;1.10;;;17.00;99.90;;;;;;5032264;28;20488;-82
2022/05/18 07:04:10;;;;;;;3.97;1.27;;;16.60;99.90;;;;;;5032420;28;20422;-84
2022/05/18 07:06:42;;;;;;;2.10;1.60;;;16.90;1.00;;;;;;5033001;28;20445;-82
2022/05/18 07:09:16;;;;;;;2.30;1.80;;;17.00;99.90;;;;;;5032406;28;20408;-83
2022/05/18 07:11:45;;;;;;;4.20;0.87;;;17.00;1.00;;;;;;5032621;28;20414;-82
2022/05/18 07:14:12;;;;;;;1.93;1.33;;;16.60;1.00;;;;;;5032797;28;20476;-83
2022/05/18 07:16:38;;;;;;;3.03;1.53;;;16.50;1.00;;;;;;5031180;28;20418;-83
2022/05/18 07:19:03;;;;;;;4.50;1.73;;;16.80;1.00;;;;;;5032497;28;20423;-84
2022/05/18 07:21:29;;;;;;;2.17;1.53;;;16.80;1.00;;;;;;5032363;28;20221;-80
2022/05/18 07:23:57;;;;;;;2.23;1.43;;;16.70;1.00;;;;;;5032565;28;20771;-83
2022/05/18 07:26:24;;;;;;;3.97;1.13;;;17.20;1.00;;;;;;5032296;28;20177;-82
2022/05/18 07:28:50;;;;;;;4.03;1.80;;;17.10;99.90;;;;;;5032383;28;20420;-82
2022/05/18 07:31:16;;;;;;;3.53;1.83;;;17.10;1.00;;;;;;5032124;28;20954;-84
2022/05/18 07:33:41;;;;;;;2.07;1.63;;;17.30;1.00;;;;;;5031057;28;20532;-84
2022/05/18 07:36:07;;;;;;;3.83;1.87;;;17.20;1.00;;;;;;5033948;28;20432;-84
2022/05/18 07:38:34;;;;;;;4.13;2.70;;;17.10;1.00;;;;;;5035694;28;20604;-83
2022/05/18 07:41:01;;;;;;;2.50;1.90;;;17.10;99.90;;;;;;5036127;28;20467;-84
2022/05/18 07:43:27;;;;;;;3.77;2.20;;;16.90;99.90;;;;;;5036324;28;20403;-85
2022/05/18 07:45:55;;;;;;;4.07;2.10;;;16.70;1.00;;;;;;5035343;28;20441;-85
2022/05/18 07:48:21;;;;;;;4.73;1.70;;;16.70;1.00;;;;;;5035758;28;20168;-87
2022/05/18 07:50:47;;;;;;;3.30;2.47;;;16.90;1.00;;;;;;5035531;28;20420;-85
2022/05/18 07:53:14;;;;;;;4.73;1.53;;;17.10;1.00;;;;;;5035606;28;20415;-85
2022/05/18 07:55:39;;;;;;;3.90;2.40;;;17.20;1.00;;;;;;5035684;28;20458;-83
2022/05/18 07:58:07;;;;;;;3.73;2.90;;;17.20;1.00;;;;;;5034042;28;20781;-84
2022/05/18 08:00:33;;;;;;;3.37;2.10;;;17.30;1.00;;;;;;5033437;28;20212;-84
2022/05/18 08:02:59;;;;;;;5.37;2.90;;;17.30;1.00;;;;;;5035137;28;20415;-85
2022/05/18 08:05:25;;;;;;;4.40;3.13;;;17.30;1.00;;;;;;5034979;28;20170;-84
2022/05/18 08:07:50;;;;;;;3.40;2.43;;;17.30;1.00;;;;;;5035319;28;20633;-85
2022/05/18 08:15:49;;;;;;;4.27;3.20;;;18.10;1.00;;;;;;5034922;28;20841;-83
2022/05/18 08:18:16;;;;;;;4.10;2.93;;;18.00;99.90;;;;;;5035502;28;20425;-87
2022/05/18 08:20:43;;;;;;;5.17;3.03;;;19.00;1.00;;;;;;5034625;28;20876;-82
2022/05/18 08:23:09;;;;;;;4.57;2.30;;;20.50;1.00;;;;;;5033908;28;20831;-83
2022/05/18 08:25:35;;;;;;;4.37;3.10;;;22.10;1.00;;;;;;5035342;28;20409;-87
2022/05/18 08:28:01;;;;;;;3.50;2.60;;;21.30;1.00;;;;;;5034107;28;20429;-86
2022/05/18 08:30:30;;;;;;;6.70;3.27;;;21.90;1.00;;;;;;5034145;28;20540;-86
2022/05/18 08:32:59;;;;;;;7.93;3.87;;;22.00;1.00;;;;;;5035098;28;20460;-85
2022/05/18 08:35:24;;;;;;;6.30;3.33;;;23.10;99.90;;;;;;5034874;28;20405;-86
2022/05/18 08:37:51;;;;;;;3.30;2.97;;;23.90;99.90;;;;;;5034721;28;20831;-87
2022/05/18 08:40:28;;;;;;;3.03;2.63;;;24.90;99.90;;;;;;5034768;28;20202;-88
2022/05/18 08:43:02;;;;;;;4.57;3.90;;;24.30;99.90;;;;;;5035090;28;20417;-88
2022/05/18 08:45:37;;;;;;;4.93;3.70;;;24.40;99.90;;;;;;5034375;28;20419;-85
2022/05/18 08:48:09;;;;;;;8.40;3.83;;;25.00;99.90;;;;;;5034916;28;20915;-90
2022/05/18 08:50:37;;;;;;;5.77;3.80;;;25.90;99.90;;;;;;5035731;28;20413;-90
2022/05/18 08:53:22;;;;;;;4.60;3.77;;;25.40;99.90;;;;;;5034505;28;20409;-88
2022/05/18 08:55:55;;;;;;;4.10;3.70;;;25.40;99.90;;;;;;5033828;28;20779;-91
2022/05/18 08:58:37;;;;;;;5.93;4.00;;;25.00;99.90;;;;;;5036598;28;20455;-89
2022/05/18 09:01:29;;;;;;;5.07;4.23;;;25.30;99.90;;;;;;5037701;28;20472;-89
2022/05/18 09:04:01;;;;;;;5.47;3.90;;;26.40;99.90;;;;;;5038307;28;20421;-88
2022/05/18 09:06:33;;;;;;;5.50;5.00;;;25.90;99.90;;;;;;5036707;28;20420;-87
2022/05/18 09:11:50;;;;;;;5.43;3.47;;;25.80;99.90;;;;;;5039179;28;20540;-90
2022/05/18 09:14:20;;;;;;;4.57;3.70;;;25.80;99.90;;;;;;5035543;28;20452;-81
2022/05/18 09:17:00;;;;;;;5.80;4.50;;;25.90;99.90;;;;;;5034716;28;20179;-84
2022/05/18 09:19:45;;;;;;;5.20;4.70;;;25.50;99.90;;;;;;5035427;28;20416;-83
2022/05/18 09:22:47;;;;;;;4.60;4.07;;;26.10;99.90;;;;;;5034856;28;20433;-83
2022/05/18 09:25:51;;;;;;;4.93;4.47;;;26.50;99.90;;;;;;5035242;28;20496;-85
2022/05/18 09:28:53;;;;;;;6.10;5.40;;;26.00;99.90;;;;;;5032567;28;20439;-85
2022/05/18 09:31:33;;;;;;;4.17;3.87;;;26.10;99.90;;;;;;5021267;28;20424;-84
2022/05/18 09:34:02;;;;;;;5.33;4.83;;;27.10;99.90;;;;;;5033012;28;20435;-85
2022/05/18 09:36:55;;;;;;;9.67;5.80;;;27.60;99.90;;;;;;5033538;28;20417;-85
2022/05/18 09:39:26;;;;;;;4.53;4.13;;;26.90;99.90;;;;;;5033601;28;20425;-85
2022/05/18 09:42:02;;;;;;;5.50;4.43;;;27.30;99.90;;;;;;5033599;28;20476;-85
2022/05/18 09:44:41;;;;;;;6.10;5.50;;;26.50;99.90;;;;;;5033684;28;20420;-87
2022/05/18 09:47:09;;;;;;;5.40;4.33;;;27.20;99.90;;;;;;5033310;28;20416;-86
2022/05/18 09:49:43;;;;;;;6.13;5.63;;;27.20;99.90;;;;;;5032246;28;20425;-83
2022/05/18 09:52:10;;;;;;;5.50;5.00;;;26.90;99.90;;;;;;5032220;28;21008;-85
2022/05/18 09:54:37;;;;;;;5.57;5.07;;;28.00;99.90;;;;;;5032366;28;20523;-85
2022/05/18 09:57:12;;;;;;;5.83;5.33;;;27.90;99.90;;;;;;5033951;28;20421;-87
2022/05/18 09:59:43;;;;;;;6.03;5.20;;;28.20;99.90;;;;;;5032633;28;20409;-85
2022/05/18 10:07:52;;;;;;;5.70;5.20;;;29.20;99.90;;;;;;5033710;28;20501;-91
2022/05/18 10:10:30;;;;;;;11.03;5.90;;;27.80;95.20;;;;;;5032193;28;20444;-86
2022/05/18 10:12:58;;;;;;;6.37;5.73;;;26.80;99.90;;;;;;5033194;28;20181;-86
2022/05/18 10:15:43;;;;;;;7.33;6.20;;;27.10;99.90;;;;;;5033926;28;20905;-90
2022/05/18 10:18:30;;;;;;;7.20;5.73;;;27.10;99.90;;;;;;5033768;28;20440;-92
2022/05/18 10:21:10;;;;;;;8.43;7.27;;;27.00;99.90;;;;;;5038301;28;20480;-87
2022/05/18 10:23:51;;;;;;;6.67;6.10;;;26.70;99.90;;;;;;5034352;28;20409;-88
2022/05/18 10:26:29;;;;;;;7.33;6.60;;;27.40;99.90;;;;;;5033723;28;20420;-86
2022/05/18 10:29:01;;;;;;;8.07;6.43;;;27.10;99.90;;;;;;5034249;28;20480;-87
2022/05/18 10:32:02;;;;;;;6.50;6.00;;;27.00;99.90;;;;;;5032062;28;20752;-89
2022/05/18 10:34:39;;;;;;;7.77;7.17;;;26.60;99.90;;;;;;5032184;28;20486;-90
2022/05/18 10:37:11;;;;;;;7.33;6.67;;;26.60;99.90;;;;;;5033096;28;20463;-92
2022/05/18 10:39:44;;;;;;;6.93;6.33;;;27.40;99.90;;;;;;5032043;28;20944;-88
2022/05/18 10:42:29;;;;;;;7.57;6.87;;;28.00;99.90;;;;;;5033393;28;20445;-92
2022/05/18 10:44:59;;;;;;;7.10;6.50;;;27.50;99.90;;;;;;5031533;28;20421;-87
2022/05/18 10:47:35;;;;;;;6.90;6.37;;;27.80;99.90;;;;;;5031876;28;20800;-87
2022/05/18 10:50:21;;;;;;;6.43;5.80;;;27.90;99.90;;;;;;5032515;28;20975;-91
2022/05/18 10:52:48;;;;;;;7.43;6.10;;;27.90;99.90;;;;;;5032632;28;21066;-85
2022/05/18 10:55:17;;;;;;;6.80;6.23;;;28.00;99.90;;;;;;5032548;28;20440;-92
2022/05/18 10:57:54;;;;;;;6.77;6.07;;;27.60;99.90;;;;;;5033367;28;20475;-87
2022/05/18 11:00:20;;;;;;;7.10;6.50;;;28.20;99.90;;;;;;5031113;28;20992;-86
2022/05/18 11:03:14;;;;;;;7.47;6.80;;;28.00;99.90;;;;;;5031305;28;20420;-85
2022/05/18 11:05:44;;;;;;;7.17;6.67;;;27.70;99.90;;;;;;5032624;28;20933;-85
2022/05/18 11:08:17;;;;;;;7.90;7.10;;;27.60;99.90;;;;;;5032464;28;20409;-86
2022/05/18 11:11:35;;;;;;;7.40;6.80;;;27.60;99.90;;;;;;5033991;28;20421;-87
2022/05/18 11:14:16;;;;;;;7.90;7.20;;;28.00;99.90;;;;;;5036352;28;20760;-85
2022/05/18 11:16:56;;;;;;;7.40;6.77;;;28.00;99.90;;;;;;5035800;28;20504;-86
2022/05/18 11:20:00;;;;;;;6.43;5.93;;;27.50;99.90;;;;;;5036070;28;20400;-85
2022/05/18 11:22:45;;;;;;;7.23;6.53;;;27.70;99.90;;;;;;5035082;28;20771;-87
2022/05/18 11:25:22;;;;;;;7.30;6.67;;;28.50;99.90;;;;;;5036103;28;20547;-88
2022/05/18 11:27:57;;;;;;;7.73;7.03;;;28.40;99.90;;;;;;5036195;28;20488;-86
2022/05/18 11:30:58;;;;;;;6.90;6.40;;;28.30;99.90;;;;;;5034368;28;20578;-88
2022/05/18 11:33:46;;;;;;;7.50;6.83;;;28.20;99.90;;;;;;5034687;28;20491;-85
2022/05/18 11:36:33;;;;;;;7.83;6.43;;;28.50;99.90;;;;;;5035785;28;20413;-86
2022/05/18 11:39:22;;;;;;;7.30;6.70;;;28.30;99.90;;;;;;5035901;28;20828;-88
2022/05/18 11:42:04;;;;;;;5.87;5.47;;;28.30;99.90;;;;;;5036005;28;20469;-86
2022/05/18 11:45:07;;;;;;;6.87;6.17;;;29.20;99.90;;;;;;5035719;28;20444;-85
2022/05/18 11:48:07;;;;;;;5.77;5.30;;;28.80;99.90;;;;;;5035966;28;20909;-88
2022/05/18 11:50:57;;;;;;;5.67;5.27;;;29.00;99.90;;;;;;5035806;28;20456;-89
2022/05/18 11:54:01;;;;;;;7.40;5.50;;;28.60;99.90;;;;;;5035529;28;20421;-85
2022/05/18 11:57:11;;;;;;;6.27;5.77;;;29.20;99.90;;;;;;5035413;28;20738;-86
2022/05/18 11:59:57;;;;;;;6.40;5.90;;;28.50;99.90;;;;;;5016279;28;20467;-85
2022/05/18 12:02:29;;;;;;;6.20;5.60;;;28.90;99.90;;;;;;5034407;28;20459;-86
2022/05/18 12:05:19;;;;;;;6.30;5.80;;;29.10;99.90;;;;;;5035283;28;20402;-84
2022/05/18 12:08:25;;;;;;;6.10;5.17;;;28.90;99.90;;;;;;5035150;28;20471;-84
2022/05/18 12:10:59;;;;;;;4.70;4.40;;;29.80;99.90;;;;;;5035216;28;20409;-85
2022/05/18 12:13:47;;;;;;;4.53;4.23;;;29.40;99.90;;;;;;5035776;28;20575;-85
2022/05/18 12:16:25;;;;;;;5.17;4.77;;;29.30;97.70;;;;;;5038204;28;20413;-88
2022/05/18 12:19:07;;;;;;;6.77;4.33;;;29.40;96.80;;;;;;5038291;28;20452;-86
2022/05/18 12:21:48;;;;;;;4.73;4.27;;;29.30;94.20;;;;;;5034866;28;20464;-89
2022/05/18 12:24:16;;;;;;;4.73;4.43;;;28.70;93.20;;;;;;5035894;28;20424;-90
2022/05/18 12:26:44;;;;;;;5.43;4.93;;;28.70;99.30;;;;;;5036214;28;20409;-89
2022/05/18 12:29:14;;;;;;;6.33;4.40;;;29.00;95.20;;;;;;5036177;28;20413;-90
2022/05/18 12:31:40;;;;;;;4.77;4.37;;;29.10;99.90;;;;;;5035630;28;20436;-89
2022/05/18 12:34:11;;;;;;;4.80;4.30;;;29.60;99.20;;;;;;5035247;28;20432;-85
2022/05/18 12:36:53;;;;;;;4.67;4.10;;;29.50;99.90;;;;;;5035180;28;20453;-89
2022/05/18 12:39:23;;;;;;;5.40;4.17;;;29.60;92.60;;;;;;5035200;28;20487;-85
2022/05/18 12:41:54;;;;;;;4.80;4.30;;;29.50;84.20;;;;;;5032537;28;20480;-85
2022/05/18 12:44:28;;;;;;;3.87;3.47;;;28.80;77.60;;;;;;5034728;28;20419;-87
2022/05/18 12:46:59;;;;;;;5.47;4.03;;;28.70;81.20;;;;;;5036256;28;20457;-87
2022/05/18 12:49:30;;;;;;;4.10;3.70;;;28.90;81.40;;;;;;5036469;28;20493;-89
2022/05/18 12:52:14;;;;;;;4.20;3.50;;;29.10;79.30;;;;;;5034546;28;20524;-87
2022/05/18 12:54:47;;;;;;;4.50;4.10;;;28.00;80.10;;;;;;5036509;28;20496;-87
2022/05/18 12:57:21;;;;;;;4.50;3.90;;;27.90;78.40;;;;;;5036104;28;20418;-87
2022/05/18 13:00:11;;;;;;;3.60;3.30;;;28.50;82.00;;;;;;5035145;28;20409;-86
2022/05/18 13:03:09;;;;;;;3.27;3.00;;;29.50;91.20;;;;;;5035148;28;20428;-88
2022/05/18 13:05:47;;;;;;;4.33;3.93;;;29.90;83.30;;;;;;5001867;28;20467;-88
2022/05/18 13:08:15;;;;;;;3.60;3.30;;;28.80;64.60;;;;;;5033891;28;20503;-88
2022/05/18 13:11:24;;;;;;;4.00;3.60;;;28.40;65.30;;;;;;5034430;28;20544;-88
2022/05/18 13:13:58;;;;;;;4.53;3.73;;;28.70;73.30;;;;;;5005971;28;20447;-86
2022/05/18 13:16:39;;;;;;;4.10;3.80;;;29.00;71.30;;;;;;5033778;28;20412;-87
2022/05/18 13:19:18;;;;;;;4.20;3.30;;;29.30;72.30;;;;;;5032355;28;20421;-85
2022/05/18 13:21:48;;;;;;;3.60;3.30;;;29.40;69.90;;;;;;5033689;28;20472;-86
2022/05/18 13:24:20;;;;;;;3.80;3.50;;;29.70;67.80;;;;;;5033681;28;20408;-87
2022/05/18 13:26:49;;;;;;;4.80;4.10;;;29.60;57.60;;;;;;5033811;28;20416;-85
2022/05/18 13:29:20;;;;;;;3.17;2.90;;;29.70;59.20;;;;;;5033119;28;20416;-86
2022/05/18 13:31:51;;;;;;;4.00;3.60;;;29.30;50.60;;;;;;5033396;28;20405;-87